Terminal Aerodrome Forecast
Issued by NWS Binghamton, NY

Home | Current Version | Previous Version | Text Only | Print | Product List | Glossary On
Versions: 1 2 3 4 5 6 7 8 9 10 11 12 13 14 15 16 17 18 19
512
FTUS41 KBGM 260535
TAFBGM
TAF
KBGM 260535Z 2606/2706 11004KT P6SM FEW200
     FM261400 16008KT P6SM SCT200
     FM261800 17012G18KT P6SM BKN150
     FM270100 18013KT 5SM -SHRA OVC025
     FM270300 18012KT 4SM -SHRA BR OVC015
     FM270500 21009KT 2SM -SHRA BR OVC008=

USA.gov is the U.S. government's official web portal to all federal, state and local government web resources and services.